Nemencine, Lithuania
Current Conditions -  °F | °C
As of 7:20 AM on Monday 22 Dec 2014 (Local Time) from EYVI Reporting Station
Snow Showers Snow Showers  
Wind Chill: 24°   Ceiling: 200
Heat Index: 32°   Visibility: 1.8mi
Dew Point: 32°   Wind: 10mph
Humidity: 100%   Direction: 200°SSW
Pressure: 29.56"   Gusts: NA
Location:  54.85°N, 25.48°E
Report Text: EYVI 220420Z 20009KT 2900 -SHSNRA BR BKN002 OVC010CB 00/00 Q1001 R20/5/0394 NOSIG
Loading
Personal Weather Stations






























Interactive Weather Map New forecast layout! Learn more

10-Day Weather Forecast

Advertisements
Track Severe Weather on mobile